Time;durP1;ratioP1;P1;durP2;ratioP2;P2;SDS_P1;SDS_P2;PMS_P1;PMS_P2;Temp;Humidity;BMP_temperature;BMP_pressure;BME280_temperature;BME280_humidity;BME280_pressure;Samples;Min_cycle;Max_cycle;Signal;HPM_P1;HPM_P2
2022/06/13 00:00:09;;;;;;;3.33;2.10;;;17.90;43.30;;;;;;4969625;28;20453;-72
2022/06/13 00:02:35;;;;;;;2.60;2.20;;;17.90;43.20;;;;;;4968742;28;20435;-71
2022/06/13 00:05:02;;;;;;;3.33;3.03;;;17.90;44.00;;;;;;4969832;28;20801;-71
2022/06/13 00:07:28;;;;;;;2.87;2.10;;;17.80;45.50;;;;;;4970183;28;20818;-71
2022/06/13 00:09:53;;;;;;;3.10;2.20;;;17.90;46.20;;;;;;4969561;28;20432;-72
2022/06/13 00:12:19;;;;;;;3.00;2.40;;;17.90;45.20;;;;;;4969978;28;20223;-71
2022/06/13 00:14:44;;;;;;;5.30;2.90;;;17.90;45.00;;;;;;4969705;28;20205;-72
2022/06/13 00:17:10;;;;;;;2.00;1.67;;;17.80;45.10;;;;;;4969767;28;20177;-71
2022/06/13 00:19:36;;;;;;;3.90;2.70;;;17.90;45.80;;;;;;4969511;28;20202;-71
2022/06/13 00:22:02;;;;;;;4.40;2.83;;;17.90;46.10;;;;;;4969688;28;20448;-72
2022/06/13 00:24:27;;;;;;;2.50;2.10;;;18.00;45.30;;;;;;4969806;28;20228;-71
2022/06/13 00:26:53;;;;;;;2.73;2.50;;;18.00;44.00;;;;;;4969628;28;20184;-71
2022/06/13 00:29:18;;;;;;;3.30;2.10;;;17.90;44.20;;;;;;4969480;28;20205;-71
2022/06/13 00:31:44;;;;;;;4.37;1.87;;;18.00;43.30;;;;;;4970407;28;20600;-71
2022/06/13 00:34:10;;;;;;;3.27;2.67;;;18.00;43.30;;;;;;4971357;28;20220;-70
2022/06/13 00:36:35;;;;;;;6.10;2.43;;;17.90;43.50;;;;;;4973317;28;20649;-71
2022/06/13 00:39:01;;;;;;;5.00;2.47;;;17.90;44.50;;;;;;4972355;28;20205;-71
2022/06/13 00:41:31;;;;;;;2.80;1.73;;;17.90;45.30;;;;;;4971430;28;20177;-72
2022/06/13 00:43:58;;;;;;;3.77;2.40;;;17.90;44.70;;;;;;4972988;28;20433;-71
2022/06/13 00:46:34;;;;;;;3.10;1.43;;;18.00;44.10;;;;;;4972710;28;20409;-71
2022/06/13 00:49:09;;;;;;;2.30;1.93;;;18.00;43.30;;;;;;4972550;28;20405;-71
2022/06/13 00:51:36;;;;;;;3.33;2.23;;;18.10;42.80;;;;;;4972776;28;20412;-71
2022/06/13 00:54:03;;;;;;;1.90;1.47;;;18.00;42.30;;;;;;4972430;28;20844;-71
2022/06/13 00:56:32;;;;;;;2.20;1.70;;;17.90;42.30;;;;;;4972465;28;20813;-71
2022/06/13 00:59:05;;;;;;;2.67;1.70;;;17.90;43.90;;;;;;4970963;28;20452;-71
2022/06/13 01:01:32;;;;;;;2.63;1.30;;;17.80;43.90;;;;;;4972348;28;20413;-71
2022/06/13 01:04:01;;;;;;;2.80;1.50;;;17.90;43.20;;;;;;4972359;28;20807;-71
2022/06/13 01:06:29;;;;;;;2.90;2.03;;;18.00;45.00;;;;;;4972327;28;20420;-72
2022/06/13 01:08:55;;;;;;;3.50;2.33;;;18.00;45.00;;;;;;4972099;28;20419;-72
2022/06/13 01:11:23;;;;;;;4.77;2.40;;;17.90;45.40;;;;;;4972237;28;20917;-72
2022/06/13 01:13:58;;;;;;;2.57;2.03;;;17.90;46.70;;;;;;4972148;28;20275;-71
2022/06/13 01:16:31;;;;;;;2.73;1.93;;;17.80;47.30;;;;;;4971043;28;20793;-71
2022/06/13 01:19:21;;;;;;;2.60;2.27;;;17.90;47.80;;;;;;4971936;28;21076;-71
2022/06/13 01:22:01;;;;;;;2.50;2.00;;;17.80;48.30;;;;;;4972114;28;20405;-72
2022/06/13 01:25:05;;;;;;;3.73;2.50;;;17.90;47.70;;;;;;4971979;28;20444;-71
2022/06/13 01:27:53;;;;;;;2.77;2.57;;;18.00;46.90;;;;;;4972265;28;20408;-70
2022/06/13 01:30:43;;;;;;;3.17;2.43;;;18.00;46.80;;;;;;4971742;28;20474;-71
2022/06/13 01:33:08;;;;;;;2.57;2.37;;;18.00;45.20;;;;;;4971939;28;20449;-70
2022/06/13 01:36:01;;;;;;;3.20;2.57;;;18.00;45.20;;;;;;4971833;28;20421;-70
2022/06/13 01:39:31;;;;;;;2.73;2.13;;;18.00;45.00;;;;;;4971642;28;20271;-71
2022/06/13 01:42:10;;;;;;;7.63;2.57;;;18.10;44.40;;;;;;4953593;28;20417;-70
2022/06/13 01:44:42;;;;;;;2.67;2.30;;;18.10;43.40;;;;;;4972198;28;20567;-71
2022/06/13 01:47:20;;;;;;;5.90;2.20;;;18.00;43.30;;;;;;4970420;28;20791;-70
2022/06/13 01:49:57;;;;;;;4.53;2.30;;;18.00;43.30;;;;;;4970286;28;20570;-71
2022/06/13 01:52:44;;;;;;;3.10;2.17;;;18.00;43.30;;;;;;4971578;28;20530;-71
2022/06/13 01:55:18;;;;;;;3.10;2.00;;;17.90;45.10;;;;;;4971713;28;20942;-70
2022/06/13 01:57:53;;;;;;;3.97;2.70;;;17.90;44.70;;;;;;4971504;28;20902;-70
2022/06/13 02:00:31;;;;;;;3.57;2.30;;;17.90;44.40;;;;;;4971419;28;20421;-71
2022/06/13 02:03:17;;;;;;;3.60;3.03;;;17.80;44.50;;;;;;4971423;28;20408;-71
2022/06/13 02:06:09;;;;;;;4.90;2.47;;;17.80;45.30;;;;;;4970614;28;20424;-70
2022/06/13 02:08:39;;;;;;;3.00;2.50;;;17.70;47.30;;;;;;4971524;28;20923;-71
2022/06/13 02:11:15;;;;;;;2.43;2.03;;;17.80;46.90;;;;;;4971589;28;20417;-70
2022/06/13 02:14:04;;;;;;;3.03;2.43;;;17.70;46.70;;;;;;4971527;28;20477;-70
2022/06/13 02:16:42;;;;;;;3.40;2.40;;;17.60;48.10;;;;;;4971542;28;20783;-70
2022/06/13 02:19:18;;;;;;;3.43;3.03;;;17.70;48.20;;;;;;4970040;28;21012;-70
2022/06/13 02:21:55;;;;;;;4.87;2.63;;;17.70;48.20;;;;;;4971275;28;20772;-71
2022/06/13 02:24:25;;;;;;;2.90;2.20;;;17.70;48.20;;;;;;4971252;28;20428;-71
2022/06/13 02:26:55;;;;;;;3.27;2.70;;;17.60;48.80;;;;;;4971377;28;20469;-71
2022/06/13 02:29:35;;;;;;;3.00;2.60;;;17.60;48.20;;;;;;4971088;28;20937;-71
2022/06/13 02:32:07;;;;;;;3.83;2.80;;;17.70;48.70;;;;;;4971452;28;20459;-71
2022/06/13 02:35:01;;;;;;;3.43;2.30;;;17.70;48.20;;;;;;4971052;28;20457;-70
2022/06/13 02:37:43;;;;;;;3.13;2.57;;;17.80;47.50;;;;;;4969670;28;20468;-71
2022/06/13 02:40:11;;;;;;;3.67;2.83;;;17.80;48.30;;;;;;4970779;28;20518;-71
2022/06/13 02:43:02;;;;;;;3.80;3.30;;;17.80;48.30;;;;;;4970949;28;20413;-71
2022/06/13 02:45:33;;;;;;;4.13;3.33;;;17.90;48.60;;;;;;4969651;28;20405;-71
2022/06/13 02:48:09;;;;;;;3.00;2.50;;;18.00;48.40;;;;;;4971379;28;20448;-72
2022/06/13 02:51:09;;;;;;;2.80;2.47;;;18.00;47.70;;;;;;4969781;28;20459;-71
2022/06/13 02:53:39;;;;;;;3.40;3.03;;;18.00;47.80;;;;;;4970830;28;20463;-71
2022/06/13 02:56:30;;;;;;;3.50;3.20;;;18.00;48.50;;;;;;4970556;28;20408;-71
2022/06/13 02:59:20;;;;;;;3.40;2.40;;;18.00;47.40;;;;;;4970564;28;20606;-70
2022/06/13 03:01:49;;;;;;;4.90;3.10;;;17.70;46.90;;;;;;4970848;28;20500;-70
2022/06/13 03:04:26;;;;;;;3.10;2.43;;;17.70;48.20;;;;;;4971002;28;20528;-70
2022/06/13 03:07:13;;;;;;;2.70;2.17;;;17.60;48.30;;;;;;4970701;28;20401;-71
2022/06/13 03:09:52;;;;;;;3.53;2.60;;;17.70;48.20;;;;;;4970470;28;20774;-71
2022/06/13 03:12:40;;;;;;;3.80;2.47;;;17.70;47.70;;;;;;4970639;28;20453;-70
2022/06/13 03:15:21;;;;;;;3.13;2.83;;;17.80;47.30;;;;;;4970677;28;20470;-70
2022/06/13 03:18:01;;;;;;;3.40;2.80;;;17.80;46.40;;;;;;4970553;28;20435;-71
2022/06/13 03:20:43;;;;;;;4.47;3.60;;;17.80;47.10;;;;;;4970582;28;21038;-71
2022/06/13 03:23:13;;;;;;;3.73;3.20;;;17.80;47.50;;;;;;4970924;28;20460;-70
2022/06/13 03:26:21;;;;;;;3.50;3.20;;;17.70;48.20;;;;;;4969257;28;20409;-70
2022/06/13 03:28:52;;;;;;;3.57;2.80;;;17.60;48.10;;;;;;4990283;28;20459;-70
2022/06/13 03:31:27;;;;;;;6.13;2.93;;;17.70;48.20;;;;;;4972935;28;20838;-70
2022/06/13 03:33:58;;;;;;;4.27;3.30;;;17.70;48.20;;;;;;4998078;23;20506;-69
2022/06/13 03:36:39;;;;;;;3.40;3.10;;;17.30;49.70;;;;;;4989480;28;20411;-69
2022/06/13 03:39:10;;;;;;;5.23;2.80;;;17.30;52.60;;;;;;5056256;28;20548;-69
2022/06/13 03:41:40;;;;;;;5.60;3.03;;;17.50;51.10;;;;;;4989350;28;20932;-70
2022/06/13 03:44:13;;;;;;;3.30;2.53;;;17.50;50.00;;;;;;4989317;28;20560;-70
2022/06/13 03:46:44;;;;;;;5.30;3.10;;;17.60;48.30;;;;;;4989416;28;20423;-70
2022/06/13 03:49:35;;;;;;;7.00;3.60;;;17.70;48.20;;;;;;4989389;28;20423;-70
2022/06/13 03:52:03;;;;;;;2.30;2.10;;;17.60;48.20;;;;;;4989481;28;20412;-70
2022/06/13 03:54:34;;;;;;;3.47;3.17;;;17.30;50.70;;;;;;4989650;28;20443;-69
2022/06/13 03:57:16;;;;;;;4.00;3.10;;;17.40;50.80;;;;;;4989195;28;20439;-69
2022/06/13 03:59:53;;;;;;;4.23;2.80;;;17.50;50.70;;;;;;4987611;28;20460;-69
2022/06/13 04:02:25;;;;;;;3.87;2.43;;;17.50;50.60;;;;;;4989251;28;20421;-69
2022/06/13 04:04:53;;;;;;;2.70;2.23;;;17.70;50.40;;;;;;4989081;28;20451;-69
2022/06/13 04:07:20;;;;;;;2.70;2.10;;;17.70;49.90;;;;;;4989479;28;20415;-69
2022/06/13 04:09:49;;;;;;;2.60;2.00;;;17.80;49.50;;;;;;4992198;28;20423;-69
2022/06/13 04:12:34;;;;;;;6.73;3.23;;;17.80;48.30;;;;;;4992614;28;20427;-69
2022/06/13 04:15:15;;;;;;;3.93;2.90;;;17.70;49.50;;;;;;4992105;28;20435;-69
2022/06/13 04:18:08;;;;;;;5.23;3.20;;;17.80;49.20;;;;;;4992574;28;20506;-69
2022/06/13 04:20:43;;;;;;;3.03;2.73;;;17.90;48.30;;;;;;4992391;28;20665;-69
2022/06/13 04:23:21;;;;;;;5.03;2.83;;;17.80;48.50;;;;;;4992275;28;20432;-69
2022/06/13 04:25:53;;;;;;;7.57;2.80;;;17.90;47.80;;;;;;4992300;28;20436;-69
2022/06/13 04:28:33;;;;;;;5.23;2.90;;;17.70;49.00;;;;;;4992450;28;20408;-69
2022/06/13 04:31:01;;;;;;;4.17;3.00;;;17.70;48.20;;;;;;4992139;28;20412;-69
2022/06/13 04:33:33;;;;;;;4.97;3.37;;;17.90;47.60;;;;;;4991866;28;20543;-69
2022/06/13 04:36:00;;;;;;;3.40;2.97;;;18.00;47.20;;;;;;4986014;28;20437;-69
2022/06/13 04:38:27;;;;;;;3.30;2.70;;;17.90;47.40;;;;;;4991185;28;20996;-69
2022/06/13 04:40:56;;;;;;;4.73;2.53;;;18.00;47.20;;;;;;4990986;28;20424;-69
2022/06/13 04:43:27;;;;;;;3.37;2.70;;;18.10;46.30;;;;;;4992063;28;20439;-70
2022/06/13 04:45:58;;;;;;;8.00;2.70;;;18.30;43.60;;;;;;4991934;28;20422;-70
2022/06/13 04:48:24;;;;;;;4.30;2.37;;;18.60;37.50;;;;;;4991558;28;20428;-70
2022/06/13 04:50:54;;;;;;;3.27;2.80;;;18.90;36.30;;;;;;4989861;28;20489;-70
2022/06/13 04:53:29;;;;;;;5.30;2.80;;;19.70;31.60;;;;;;4982709;28;20428;-70
2022/06/13 04:55:55;;;;;;;8.73;3.77;;;20.40;28.70;;;;;;4982837;28;20446;-70
2022/06/13 04:58:36;;;;;;;5.50;4.20;;;20.90;26.00;;;;;;4991453;28;20973;-70
2022/06/13 05:01:15;;;;;;;9.63;4.00;;;21.40;25.30;;;;;;4991707;28;20421;-70
2022/06/13 05:03:43;;;;;;;5.17;4.77;;;22.50;24.90;;;;;;4991427;28;20432;-70
2022/06/13 05:06:31;;;;;;;7.53;6.93;;;23.60;23.00;;;;;;4991614;28;20408;-70
2022/06/13 05:09:02;;;;;;;8.87;8.13;;;24.50;19.60;;;;;;4963388;28;20432;-70
2022/06/13 05:11:33;;;;;;;8.67;8.17;;;24.90;18.60;;;;;;4991593;28;20427;-70
2022/06/13 05:14:07;;;;;;;8.47;8.07;;;25.00;18.00;;;;;;4991438;28;20424;-69
2022/06/13 05:17:17;;;;;;;10.17;9.67;;;24.60;17.40;;;;;;4990236;28;20428;-69
2022/06/13 05:19:59;;;;;;;8.87;8.47;;;24.30;16.60;;;;;;4991110;28;20458;-69
2022/06/13 05:23:14;;;;;;;10.27;9.23;;;23.70;17.30;;;;;;4991391;28;20412;-69
2022/06/13 05:25:46;;;;;;;9.77;9.17;;;23.00;17.70;;;;;;4978141;28;20424;-68
2022/06/13 05:28:18;;;;;;;9.80;9.30;;;22.40;18.20;;;;;;4989611;28;20454;-69
2022/06/13 05:30:46;;;;;;;12.00;11.30;;;23.30;18.70;;;;;;4986744;28;20432;-68
2022/06/13 05:33:13;;;;;;;10.97;10.47;;;24.10;15.00;;;;;;4979540;28;20421;-69
2022/06/13 05:35:43;;;;;;;12.03;11.40;;;23.90;13.70;;;;;;4971828;28;20417;-69
2022/06/13 05:38:19;;;;;;;12.73;12.00;;;22.80;14.10;;;;;;4989621;28;20461;-69
2022/06/13 05:40:45;;;;;;;12.73;12.03;;;22.20;14.20;;;;;;4990922;28;20902;-68
2022/06/13 05:43:12;;;;;;;11.10;10.60;;;22.90;13.40;;;;;;4990706;28;20476;-68
2022/06/13 05:45:42;;;;;;;10.27;9.57;;;22.20;14.20;;;;;;4990907;28;20833;-68
2022/06/13 05:48:17;;;;;;;10.67;9.97;;;21.50;14.80;;;;;;4990747;28;20835;-67
2022/06/13 05:50:44;;;;;;;10.33;9.83;;;21.70;13.40;;;;;;4988174;28;20443;-68
2022/06/13 05:53:15;;;;;;;10.07;9.57;;;21.60;14.70;;;;;;4990752;28;20412;-68
2022/06/13 05:55:41;;;;;;;11.50;10.90;;;22.20;13.80;;;;;;4983128;28;20531;-68
2022/06/13 05:58:10;;;;;;;12.87;12.23;;;22.90;12.50;;;;;;4985712;28;20503;-68
2022/06/13 06:00:41;;;;;;;13.70;12.93;;;24.20;11.40;;;;;;4988738;28;20419;-68
2022/06/13 06:03:06;;;;;;;13.23;12.40;;;24.90;10.60;;;;;;4971160;28;20455;-69
2022/06/13 06:05:32;;;;;;;13.17;12.57;;;25.20;8.40;;;;;;4970453;28;20529;-70
2022/06/13 06:07:58;;;;;;;13.10;12.50;;;26.30;7.60;;;;;;4971007;28;20188;-72
2022/06/13 06:10:29;;;;;;;12.40;11.70;;;26.00;6.90;;;;;;4971338;28;20586;-69
2022/06/13 06:12:54;;;;;;;14.20;13.33;;;26.60;8.80;;;;;;4974546;28;20673;-69
2022/06/13 06:15:21;;;;;;;15.13;14.07;;;28.60;7.20;;;;;;4990443;28;20436;-69
2022/06/13 06:17:46;;;;;;;14.07;13.37;;;29.40;3.40;;;;;;4990565;28;20255;-69
2022/06/13 06:20:18;;;;;;;13.93;13.33;;;28.60;4.80;;;;;;5041503;28;20546;-69
2022/06/13 06:22:43;;;;;;;14.10;13.43;;;29.40;4.50;;;;;;4998462;28;20175;-70
2022/06/13 06:25:09;;;;;;;16.33;14.97;;;30.70;2.90;;;;;;4988979;28;20515;-71
2022/06/13 06:27:35;;;;;;;15.10;14.20;;;30.60;1.30;;;;;;4989512;28;20313;-71
2022/06/13 06:30:01;;;;;;;14.87;14.17;;;29.50;1.60;;;;;;4988985;28;20511;-71
2022/06/13 06:32:26;;;;;;;14.13;13.50;;;28.80;1.00;;;;;;4990200;28;20249;-70
2022/06/13 06:34:52;;;;;;;14.87;14.20;;;29.20;3.90;;;;;;4989990;28;20216;-70
2022/06/13 06:37:17;;;;;;;14.40;13.70;;;30.40;1.50;;;;;;4988648;28;20172;-70
2022/06/13 06:39:43;;;;;;;14.33;13.73;;;30.10;1.00;;;;;;4989254;28;20670;-70
2022/06/13 06:42:09;;;;;;;14.70;14.00;;;29.00;1.80;;;;;;4990220;28;20514;-70
2022/06/13 06:44:35;;;;;;;14.27;13.67;;;29.20;1.00;;;;;;4989722;28;20189;-70
2022/06/13 06:47:00;;;;;;;14.00;13.40;;;29.00;1.00;;;;;;4987224;28;20768;-70
2022/06/13 06:49:26;;;;;;;15.63;14.70;;;29.30;2.30;;;;;;4985661;28;20184;-71
2022/06/13 06:51:51;;;;;;;15.17;14.03;;;30.10;1.00;;;;;;4981742;28;20247;-69
2022/06/13 06:59:55;;;;;;;14.80;14.00;;;28.50;1.50;;;;;;4972293;28;20475;-70
2022/06/13 07:02:26;;;;;;;15.17;14.07;;;28.50;2.00;;;;;;4976110;28;20404;-70
2022/06/13 07:04:56;;;;;;;15.00;14.00;;;28.30;2.60;;;;;;4990028;28;20902;-70
2022/06/13 07:07:23;;;;;;;14.10;13.10;;;28.20;3.30;;;;;;4989638;28;20404;-70
2022/06/13 07:09:48;;;;;;;20.63;13.30;;;28.50;3.00;;;;;;4989787;28;20454;-71
2022/06/13 07:12:15;;;;;;;16.10;15.10;;;29.10;2.70;;;;;;4990124;28;20521;-71
2022/06/13 07:14:40;;;;;;;14.50;13.80;;;29.20;1.50;;;;;;4983188;28;20212;-71
2022/06/13 07:17:08;;;;;;;14.20;13.60;;;29.30;1.20;;;;;;4970574;28;20417;-72
2022/06/13 07:19:34;;;;;;;14.57;13.87;;;29.50;2.00;;;;;;4970369;28;20208;-71
2022/06/13 07:22:00;;;;;;;15.20;14.40;;;29.90;1.00;;;;;;4970311;28;20413;-71
2022/06/13 07:24:26;;;;;;;15.37;14.43;;;30.40;1.00;;;;;;4970345;28;20787;-71
2022/06/13 07:26:52;;;;;;;16.33;15.10;;;31.20;1.00;;;;;;4970302;28;20189;-71
2022/06/13 07:29:18;;;;;;;15.30;14.53;;;31.20;1.00;;;;;;4969790;28;20494;-71
2022/06/13 07:32:12;;;;;;;14.90;13.70;;;27.60;1.00;;;;;;4975592;28;20222;-71
2022/06/13 07:34:40;;;;;;;14.40;13.80;;;27.40;1.90;;;;;;4956604;28;20476;-71
2022/06/13 07:37:09;;;;;;;14.40;13.70;;;28.70;1.00;;;;;;4970227;28;20457;-71
2022/06/13 07:39:34;;;;;;;15.00;14.30;;;28.40;1.00;;;;;;4976061;28;20465;-71
2022/06/13 07:42:01;;;;;;;14.40;13.80;;;26.90;2.10;;;;;;4982074;28;20838;-71
2022/06/13 07:44:32;;;;;;;14.53;13.83;;;25.90;2.50;;;;;;4987324;28;20196;-71
2022/06/13 07:46:58;;;;;;;13.80;13.10;;;26.20;2.70;;;;;;4989217;28;20417;-71
2022/06/13 07:49:24;;;;;;;14.10;13.40;;;23.90;4.00;;;;;;4980766;28;20518;-71
2022/06/13 07:51:50;;;;;;;12.93;12.40;;;23.20;7.40;;;;;;4982157;28;20524;-71
2022/06/13 07:54:16;;;;;;;13.83;12.93;;;24.20;7.10;;;;;;4983802;28;20597;-71
2022/06/13 07:56:43;;;;;;;13.20;12.70;;;24.70;6.20;;;;;;4974126;28;20432;-71
2022/06/13 07:59:15;;;;;;;13.60;13.00;;;25.30;6.50;;;;;;4973582;28;20869;-70
2022/06/13 08:01:41;;;;;;;15.70;14.70;;;26.30;3.80;;;;;;4973468;28;20446;-71
2022/06/13 08:04:06;;;;;;;13.23;12.63;;;26.30;3.50;;;;;;4974643;28;20440;-70
2022/06/13 08:06:32;;;;;;;14.20;13.43;;;26.80;2.60;;;;;;4974559;28;20463;-70
2022/06/13 08:08:58;;;;;;;14.20;13.40;;;25.80;3.60;;;;;;4972753;28;20188;-71
2022/06/13 08:11:34;;;;;;;13.57;12.80;;;24.60;4.70;;;;;;4973003;28;20260;-71
2022/06/13 08:14:00;;;;;;;14.60;13.80;;;24.60;7.60;;;;;;4972967;28;20276;-70
2022/06/13 08:16:26;;;;;;;14.77;14.03;;;26.30;5.70;;;;;;4972923;28;20420;-69
2022/06/13 08:18:51;;;;;;;14.00;13.30;;;27.60;2.40;;;;;;4972663;28;20986;-71
2022/06/13 08:21:17;;;;;;;14.40;13.70;;;28.00;2.50;;;;;;4973296;28;20253;-70
2022/06/13 08:23:43;;;;;;;15.87;14.80;;;28.20;1.50;;;;;;4973145;28;20197;-70
2022/06/13 08:26:09;;;;;;;14.07;13.53;;;26.70;2.60;;;;;;4973139;28;20586;-70
2022/06/13 08:28:35;;;;;;;14.67;13.80;;;26.80;3.50;;;;;;4972355;28;20413;-70
2022/06/13 08:31:07;;;;;;;14.90;14.20;;;26.80;2.60;;;;;;4973092;28;20477;-70
2022/06/13 08:33:33;;;;;;;15.17;14.27;;;27.40;2.90;;;;;;4972487;28;20217;-71
2022/06/13 08:35:59;;;;;;;15.53;14.93;;;27.50;1.70;;;;;;4972658;28;20812;-71
2022/06/13 08:38:25;;;;;;;15.70;14.63;;;27.90;2.20;;;;;;4972374;28;20456;-71
2022/06/13 08:41:06;;;;;;;15.93;14.93;;;28.10;2.80;;;;;;4972793;28;20787;-71
2022/06/13 08:43:50;;;;;;;17.30;16.20;;;28.30;2.30;;;;;;4972585;28;20737;-71
2022/06/13 08:46:50;;;;;;;14.87;14.03;;;28.60;2.00;;;;;;4972571;28;20462;-71
2022/06/13 08:49:52;;;;;;;14.93;14.37;;;28.80;1.40;;;;;;4972380;28;20920;-71
2022/06/13 08:52:25;;;;;;;14.80;13.90;;;28.40;1.10;;;;;;4975889;28;20431;-71
2022/06/13 08:55:14;;;;;;;16.03;15.10;;;27.60;1.50;;;;;;4972785;28;20436;-71
2022/06/13 08:57:47;;;;;;;15.20;14.50;;;26.90;2.70;;;;;;4972521;28;20421;-71
2022/06/13 09:00:18;;;;;;;15.43;14.73;;;26.10;3.20;;;;;;4972088;28;20468;-69
2022/06/13 09:02:51;;;;;;;16.03;14.87;;;25.50;2.60;;;;;;4972343;28;20456;-71
2022/06/13 09:05:28;;;;;;;14.87;14.17;;;25.50;4.40;;;;;;4972238;28;20802;-71
2022/06/13 09:08:07;;;;;;;14.87;13.87;;;24.40;5.30;;;;;;4972415;28;20409;-70
2022/06/13 09:10:54;;;;;;;17.77;16.47;;;24.50;6.00;;;;;;4972369;28;20405;-70
2022/06/13 09:13:39;;;;;;;14.80;14.10;;;23.30;5.90;;;;;;4972067;28;20844;-70
2022/06/13 09:16:11;;;;;;;16.70;15.70;;;24.00;7.90;;;;;;4972354;28;20508;-70
2022/06/13 09:18:56;;;;;;;15.33;14.23;;;24.70;7.20;;;;;;4971622;28;20460;-71
2022/06/13 09:21:42;;;;;;;14.33;13.53;;;25.00;5.90;;;;;;4974976;28;20435;-70
2022/06/13 09:24:27;;;;;;;15.60;14.57;;;24.60;5.40;;;;;;4972244;28;20436;-70
2022/06/13 09:26:59;;;;;;;15.40;14.70;;;24.90;6.30;;;;;;4972317;28;20420;-70
2022/06/13 09:29:47;;;;;;;15.53;14.73;;;24.20;4.30;;;;;;4971826;28;20409;-69
2022/06/13 09:32:17;;;;;;;14.50;13.90;;;23.50;6.70;;;;;;4971972;28;20417;-73
2022/06/13 09:34:49;;;;;;;15.17;14.47;;;23.10;6.90;;;;;;5013876;23;20547;-69
2022/06/13 09:37:44;;;;;;;16.30;15.20;;;23.30;7.20;;;;;;5010754;28;20404;-69
2022/06/13 09:40:13;;;;;;;14.93;14.23;;;23.10;6.00;;;;;;5010938;28;20471;-70
2022/06/13 09:42:53;;;;;;;15.80;15.10;;;23.00;6.10;;;;;;5010856;28;20415;-70
2022/06/13 09:45:47;;;;;;;16.40;14.87;;;23.20;5.10;;;;;;5010699;28;20946;-70
2022/06/13 09:48:51;;;;;;;15.10;14.23;;;23.30;4.80;;;;;;5010275;28;20418;-70
2022/06/13 09:52:01;;;;;;;13.93;13.33;;;23.30;3.90;;;;;;5010656;28;20734;-70
2022/06/13 09:54:29;;;;;;;15.93;14.97;;;23.50;5.70;;;;;;5025586;28;20526;-69
2022/06/13 09:57:20;;;;;;;14.40;13.80;;;23.80;3.70;;;;;;5010430;28;20416;-71
2022/06/13 10:00:00;;;;;;;14.97;14.10;;;23.20;4.60;;;;;;4990539;28;20467;-69
2022/06/13 10:02:43;;;;;;;13.70;13.00;;;23.10;5.30;;;;;;5010125;28;20419;-69
2022/06/13 10:05:36;;;;;;;14.80;14.20;;;23.70;4.90;;;;;;5010152;28;20848;-71
2022/06/13 10:08:43;;;;;;;13.63;12.93;;;22.90;4.90;;;;;;5010139;28;20415;-70
2022/06/13 10:11:17;;;;;;;14.27;13.53;;;22.90;4.90;;;;;;5010162;28;20457;-70
2022/06/13 10:14:30;;;;;;;15.03;14.03;;;22.70;4.80;;;;;;5010157;28;20529;-70
2022/06/13 10:17:01;;;;;;;13.80;13.10;;;21.90;6.60;;;;;;5070485;28;20412;-70
2022/06/13 10:19:43;;;;;;;14.47;13.77;;;21.70;7.50;;;;;;5053564;28;20822;-70
2022/06/13 10:22:15;;;;;;;13.90;13.20;;;21.30;5.90;;;;;;5030109;28;20427;-70
2022/06/13 10:25:16;;;;;;;13.30;12.60;;;21.30;5.30;;;;;;5010343;28;20439;-70
2022/06/13 10:28:09;;;;;;;14.07;13.47;;;21.80;5.40;;;;;;4989409;28;20423;-71
2022/06/13 10:30:54;;;;;;;14.30;13.40;;;22.40;3.80;;;;;;5010305;28;20415;-71
2022/06/13 10:33:38;;;;;;;13.20;12.60;;;21.90;4.20;;;;;;5010248;28;20450;-70
2022/06/13 10:36:03;;;;;;;12.90;12.37;;;22.10;3.70;;;;;;5010114;28;20982;-68
2022/06/13 10:38:41;;;;;;;13.70;12.50;;;22.50;3.90;;;;;;5009745;28;20458;-70
2022/06/13 10:41:07;;;;;;;12.23;11.73;;;22.80;5.00;;;;;;5010171;28;20180;-70
2022/06/13 10:43:36;;;;;;;13.93;13.33;;;23.10;5.30;;;;;;5009988;28;20403;-74
2022/06/13 10:46:01;;;;;;;13.60;12.97;;;23.50;5.40;;;;;;5010039;28;20403;-69
2022/06/13 10:48:34;;;;;;;15.13;14.40;;;23.90;4.30;;;;;;5009559;28;20932;-67
2022/06/13 10:51:02;;;;;;;14.70;14.10;;;24.10;3.50;;;;;;5010005;28;20205;-67
2022/06/13 10:53:54;;;;;;;14.80;14.10;;;24.30;3.10;;;;;;5008869;28;20794;-67
2022/06/13 10:56:27;;;;;;;14.93;14.17;;;24.50;2.40;;;;;;5017202;28;20426;-67
2022/06/13 10:58:56;;;;;;;15.23;14.53;;;24.00;2.20;;;;;;5009621;28;20447;-67
2022/06/13 11:01:25;;;;;;;14.87;14.00;;;22.90;2.90;;;;;;5009654;28;20415;-69
2022/06/13 11:04:00;;;;;;;14.77;13.97;;;23.10;3.50;;;;;;5009601;28;20487;-69
2022/06/13 11:06:45;;;;;;;14.63;13.93;;;23.10;2.10;;;;;;5009878;28;20406;-69
2022/06/13 11:09:38;;;;;;;14.13;13.43;;;22.90;1.70;;;;;;5009152;28;20413;-68
2022/06/13 11:12:36;;;;;;;14.47;13.67;;;23.40;2.40;;;;;;5009425;28;20439;-68
2022/06/13 11:24:08;;;;;;;15.07;14.37;;;24.30;2.10;;;;;;5009192;28;20426;-67
2022/06/13 11:29:23;;;;;;;14.43;13.83;;;23.30;2.60;;;;;;5009273;28;20468;-68
2022/06/13 11:31:54;;;;;;;14.60;13.90;;;23.90;3.70;;;;;;5009340;28;20426;-68
2022/06/13 11:34:37;;;;;;;15.23;14.23;;;24.30;1.20;;;;;;4989167;28;20645;-70
2022/06/13 11:37:13;;;;;;;14.60;14.00;;;24.50;1.00;;;;;;4985498;28;20968;-69
2022/06/13 11:39:43;;;;;;;15.83;14.97;;;24.50;1.00;;;;;;4995693;28;20453;-69
2022/06/13 11:42:26;;;;;;;15.13;14.53;;;24.20;1.00;;;;;;5005665;28;20466;-69
2022/06/13 11:45:00;;;;;;;15.70;15.00;;;23.90;1.40;;;;;;5004683;28;20438;-70
2022/06/13 11:47:28;;;;;;;15.17;14.57;;;24.20;1.00;;;;;;5004972;28;20929;-70
2022/06/13 11:49:56;;;;;;;15.40;14.70;;;24.10;1.10;;;;;;5005549;28;20812;-67
2022/06/13 11:55:25;;;;;;;15.00;14.40;;;24.70;1.00;;;;;;5005245;28;21226;-69
2022/06/13 11:57:56;;;;;;;15.60;15.00;;;24.90;1.00;;;;;;5008779;28;20418;-69
2022/06/13 12:00:26;;;;;;;15.83;15.03;;;24.50;1.00;;;;;;5007341;28;21053;-69
2022/06/13 12:03:20;;;;;;;15.17;14.47;;;24.00;1.00;;;;;;5007547;28;20419;-69
2022/06/13 12:05:50;;;;;;;13.30;12.80;;;24.30;1.00;;;;;;5009990;28;20846;-69
2022/06/13 12:08:16;;;;;;;13.60;13.00;;;24.40;1.00;;;;;;5007125;28;20483;-69
2022/06/13 12:11:06;;;;;;;14.80;14.10;;;24.00;1.00;;;;;;5008531;28;20506;-69
2022/06/13 12:13:39;;;;;;;14.40;13.80;;;23.40;1.50;;;;;;5008575;28;20181;-69
2022/06/13 12:16:48;;;;;;;16.20;15.00;;;23.40;1.30;;;;;;5008563;28;20415;-69
2022/06/13 12:19:37;;;;;;;15.30;14.50;;;23.10;2.10;;;;;;5008254;28;20459;-70
2022/06/13 12:22:17;;;;;;;14.70;14.10;;;23.60;1.00;;;;;;5008544;28;20841;-70
2022/06/13 12:25:13;;;;;;;14.40;13.83;;;23.70;1.00;;;;;;5008482;28;20949;-70
2022/06/13 12:27:57;;;;;;;14.30;13.70;;;23.60;1.90;;;;;;5009063;28;20411;-70
2022/06/13 12:30:37;;;;;;;14.83;14.23;;;23.50;1.00;;;;;;5011930;28;20467;-70
2022/06/13 12:33:30;;;;;;;15.17;14.57;;;23.80;1.00;;;;;;5011921;28;20559;-69
2022/06/13 12:36:14;;;;;;;14.47;13.87;;;23.10;1.00;;;;;;5011698;28;20422;-70
2022/06/13 12:39:04;;;;;;;15.73;14.70;;;23.00;1.80;;;;;;5010096;28;20499;-70
2022/06/13 12:41:56;;;;;;;13.97;13.47;;;23.40;1.00;;;;;;5011875;28;20478;-70
2022/06/13 12:44:46;;;;;;;14.03;13.53;;;23.50;1.00;;;;;;5011504;28;20494;-70
2022/06/13 12:47:36;;;;;;;14.07;13.47;;;23.70;1.00;;;;;;5011564;28;20425;-69
2022/06/13 12:50:41;;;;;;;14.23;13.67;;;23.40;1.00;;;;;;5011401;28;20407;-70
2022/06/13 12:53:42;;;;;;;14.80;14.07;;;23.30;1.00;;;;;;5011716;28;20425;-69
2022/06/13 12:56:24;;;;;;;14.07;13.37;;;23.60;1.00;;;;;;5011354;28;20416;-69
2022/06/13 12:58:49;;;;;;;13.30;12.80;;;23.60;1.00;;;;;;5011029;28;20584;-69
2022/06/13 13:01:41;;;;;;;13.60;13.00;;;23.90;1.00;;;;;;5011349;28;20451;-69
2022/06/13 13:04:36;;;;;;;14.73;14.10;;;23.70;1.00;;;;;;5011243;28;20211;-69
2022/06/13 13:07:25;;;;;;;13.70;13.20;;;23.20;1.00;;;;;;5011408;28;20476;-71
2022/06/13 13:10:13;;;;;;;14.07;13.47;;;22.90;1.00;;;;;;5018207;28;20437;-70
2022/06/13 13:12:59;;;;;;;14.30;13.70;;;23.20;1.00;;;;;;5011117;28;20460;-69
2022/06/13 13:15:36;;;;;;;14.40;13.60;;;23.40;1.00;;;;;;5011248;28;20431;-69
2022/06/13 13:18:18;;;;;;;14.10;13.60;;;23.10;1.00;;;;;;5011000;28;20414;-71
2022/06/13 13:20:49;;;;;;;14.80;14.10;;;23.60;1.00;;;;;;5009442;28;20442;-72
2022/06/13 13:23:23;;;;;;;15.90;14.70;;;23.60;1.00;;;;;;5011134;28;20465;-70
2022/06/13 13:26:26;;;;;;;16.30;15.07;;;23.70;1.00;;;;;;5010931;28;20415;-70
2022/06/13 13:29:15;;;;;;;14.33;13.83;;;23.30;1.00;;;;;;5010790;28;20610;-70
2022/06/13 13:32:09;;;;;;;15.63;14.97;;;23.40;1.00;;;;;;5011102;28;20415;-70
2022/06/13 13:34:45;;;;;;;14.67;14.07;;;23.50;1.00;;;;;;5010493;28;20454;-70
2022/06/13 13:37:35;;;;;;;15.33;14.67;;;24.00;1.00;;;;;;5010942;28;20423;-70
2022/06/13 13:40:15;;;;;;;15.17;14.57;;;24.00;1.00;;;;;;5010122;28;20470;-70
2022/06/13 13:42:50;;;;;;;15.10;14.50;;;23.90;1.00;;;;;;4996625;28;20432;-70
2022/06/13 13:45:36;;;;;;;14.93;14.30;;;23.50;1.00;;;;;;4990901;28;20438;-69